Time;durP1;ratioP1;P1;durP2;ratioP2;P2;SDS_P1;SDS_P2;PMS_P1;PMS_P2;Temp;Humidity;BMP_temperature;BMP_pressure;BME280_temperature;BME280_humidity;BME280_pressure;Samples;Min_cycle;Max_cycle;Signal;HPM_P1;HPM_P2
2023/02/13 00:01:53;;;;;;;1.77;1.67;;;;;;;;;;5098866;28;20477;-88
2023/02/13 00:04:19;;;;;;;4.22;3.75;;;;;;;;;;5093867;28;20048;-88
2023/02/13 00:06:46;;;;;;;1.85;1.75;;;;;;;;;;5096956;28;20040;-88
2023/02/13 00:09:14;;;;;;;1.67;1.65;;;;;;;;;;5098630;28;20151;-87
2023/02/13 00:11:40;;;;;;;2.17;2.08;;;;;;;;;;5097916;28;20047;-88
2023/02/13 00:14:07;;;;;;;5.75;5.45;;;;;;;;;;5097485;28;20047;-88
2023/02/13 00:16:35;;;;;;;2.45;2.25;;;;;;;;;;5096911;28;20081;-88
2023/02/13 00:19:01;;;;;;;1.42;1.38;;;;;;;;;;5097593;28;20109;-88
2023/02/13 00:21:28;;;;;;;2.25;2.15;;;;;;;;;;5097051;28;20527;-88
2023/02/13 00:23:55;;;;;;;1.95;1.85;;;;;;;;;;5082203;28;20082;-88
2023/02/13 00:26:31;;;;;;;5.55;1.83;;;;;;;;;;5076949;28;20048;-89
2023/02/13 00:29:04;;;;;;;2.17;2.08;;;;;;;;;;5081598;28;20075;-88
2023/02/13 00:31:34;;;;;;;4.70;3.40;;;;;;;;;;5087923;28;20048;-89
2023/02/13 00:34:05;;;;;;;2.65;1.63;;;;;;;;;;5096738;28;20044;-88
2023/02/13 00:36:31;;;;;;;1.90;1.80;;;;;;;;;;5096432;28;20056;-88
2023/02/13 00:38:58;;;;;;;1.52;1.42;;;;;;;;;;5096603;28;20413;-88
2023/02/13 00:41:24;;;;;;;2.20;2.10;;;;;;;;;;5092600;28;20051;-90
2023/02/13 00:43:51;;;;;;;2.78;2.58;;;;;;;;;;5077104;28;20060;-90
2023/02/13 00:46:18;;;;;;;2.28;2.13;;;;;;;;;;5076587;28;20048;-88
2023/02/13 00:48:44;;;;;;;1.55;1.45;;;;;;;;;;5076084;28;20053;-88
2023/02/13 00:51:12;;;;;;;2.05;1.95;;;;;;;;;;5075502;28;20109;-89
2023/02/13 00:53:39;;;;;;;1.33;1.33;;;;;;;;;;5075770;28;20056;-89
2023/02/13 00:56:06;;;;;;;2.95;2.75;;;;;;;;;;5074643;28;20060;-88
2023/02/13 00:58:33;;;;;;;6.60;1.73;;;;;;;;;;5081796;28;20056;-88
2023/02/13 01:01:00;;;;;;;2.17;2.08;;;;;;;;;;5094763;28;20048;-89
2023/02/13 01:03:26;;;;;;;1.95;1.52;;;;;;;;;;5094376;28;20512;-88
2023/02/13 01:05:53;;;;;;;1.88;1.77;;;;;;;;;;5094175;28;20051;-89
2023/02/13 01:08:21;;;;;;;2.33;1.73;;;;;;;;;;5095568;28;20089;-88
2023/02/13 01:10:48;;;;;;;3.22;2.92;;;;;;;;;;5094717;28;20132;-88
2023/02/13 01:13:15;;;;;;;2.08;1.98;;;;;;;;;;5094998;28;20047;-89
2023/02/13 01:15:42;;;;;;;9.65;3.05;;;;;;;;;;5090943;28;20093;-89
2023/02/13 01:18:09;;;;;;;1.50;1.40;;;;;;;;;;5094735;28;20048;-88
2023/02/13 01:20:36;;;;;;;0.40;0.40;;;;;;;;;;5094644;28;20048;-87
2023/02/13 01:23:03;;;;;;;2.33;2.22;;;;;;;;;;5074558;28;20044;-88
2023/02/13 01:25:31;;;;;;;1.70;1.60;;;;;;;;;;5074205;28;20045;-88
2023/02/13 01:27:57;;;;;;;1.70;1.60;;;;;;;;;;5074119;28;20486;-88
2023/02/13 01:30:24;;;;;;;2.85;2.70;;;;;;;;;;5074276;28;20106;-87
2023/02/13 01:32:50;;;;;;;2.30;2.15;;;;;;;;;;5089860;28;20044;-88
2023/02/13 01:35:17;;;;;;;1.08;1.08;;;;;;;;;;5092788;28;20097;-87
2023/02/13 01:37:44;;;;;;;2.45;2.28;;;;;;;;;;5093886;28;20055;-88
2023/02/13 01:40:12;;;;;;;2.53;2.33;;;;;;;;;;5094015;28;20047;-88
2023/02/13 01:42:40;;;;;;;2.28;2.13;;;;;;;;;;5093989;28;20101;-88
2023/02/13 01:45:17;;;;;;;1.50;1.40;;;;;;;;;;5093879;28;20484;-87
2023/02/13 01:47:44;;;;;;;0.88;0.77;;;;;;;;;;5093813;28;20501;-87
2023/02/13 01:50:13;;;;;;;3.08;2.78;;;;;;;;;;5093301;28;20101;-87
2023/02/13 01:52:41;;;;;;;3.60;2.10;;;;;;;;;;5088489;28;20432;-87
2023/02/13 01:55:08;;;;;;;2.92;2.83;;;;;;;;;;5093682;28;20201;-87
2023/02/13 01:57:36;;;;;;;0.82;0.82;;;;;;;;;;5093088;28;20105;-87
2023/02/13 02:00:07;;;;;;;2.72;1.92;;;;;;;;;;5093769;28;20052;-87
2023/02/13 02:02:34;;;;;;;0.82;0.80;;;;;;;;;;5093420;28;20048;-87
2023/02/13 02:05:02;;;;;;;2.38;2.28;;;;;;;;;;5093514;28;20126;-87
2023/02/13 02:07:29;;;;;;;3.20;2.92;;;;;;;;;;5091350;28;20056;-88
2023/02/13 02:09:59;;;;;;;5.60;2.17;;;;;;;;;;5091840;28;20051;-87
2023/02/13 02:12:28;;;;;;;0.88;0.88;;;;;;;;;;5092910;28;20048;-88
2023/02/13 02:14:56;;;;;;;1.67;1.58;;;;;;;;;;5093099;28;20097;-87
2023/02/13 02:17:25;;;;;;;1.92;1.83;;;;;;;;;;5093646;28;20059;-87
2023/02/13 02:19:58;;;;;;;1.55;1.45;;;;;;;;;;5093510;28;20047;-87
2023/02/13 02:22:42;;;;;;;2.20;2.10;;;;;;;;;;5093503;28;20048;-87
2023/02/13 02:25:40;;;;;;;1.55;1.50;;;;;;;;;;5093444;28;20052;-87
2023/02/13 02:28:25;;;;;;;2.00;1.90;;;;;;;;;;5093807;28;20107;-87
2023/02/13 02:31:15;;;;;;;1.42;1.33;;;;;;;;;;5097673;28;20059;-87
2023/02/13 02:33:49;;;;;;;1.20;1.20;;;;;;;;;;5061770;28;20063;-87
2023/02/13 02:36:22;;;;;;;1.35;1.25;;;;;;;;;;5076626;28;20473;-87
2023/02/13 02:38:57;;;;;;;1.65;1.55;;;;;;;;;;5076922;28;20063;-88
2023/02/13 02:41:43;;;;;;;0.75;0.75;;;;;;;;;;5085331;28;20045;-88
2023/02/13 02:44:18;;;;;;;1.27;1.25;;;;;;;;;;5097489;28;20138;-87
2023/02/13 02:52:27;;;;;;;5.78;5.57;;;;;;;;;;5097068;28;20184;-87
2023/02/13 02:55:08;;;;;;;1.67;1.58;;;;;;;;;;5096775;28;20059;-87
2023/02/13 03:14:04;;;;;;;1.55;1.45;;;;;;;;;;5097096;28;20055;-87
2023/02/13 03:22:22;;;;;;;2.80;2.60;;;;;;;;;;5097048;28;20055;-87
2023/02/13 03:24:53;;;;;;;0.40;0.40;;;;;;;;;;5096725;28;20102;-87
2023/02/13 03:30:13;;;;;;;4.00;3.08;;;;;;;;;;5096287;28;20056;-87
2023/02/13 03:32:43;;;;;;;1.45;1.17;;;;;;;;;;5083710;28;20048;-87
2023/02/13 03:38:08;;;;;;;2.70;2.35;;;;;;;;;;5088923;28;20480;-87
2023/02/13 03:40:37;;;;;;;1.33;1.23;;;;;;;;;;5096550;28;20534;-87
2023/02/13 03:43:25;;;;;;;1.35;1.25;;;;;;;;;;5096083;28;20052;-88
2023/02/13 03:45:56;;;;;;;1.02;1.02;;;;;;;;;;5096303;28;20493;-87
2023/02/13 03:51:10;;;;;;;1.08;1.08;;;;;;;;;;5075775;28;20132;-87
2023/02/13 03:53:39;;;;;;;3.35;2.15;;;;;;;;;;5092659;28;20051;-88
2023/02/13 04:01:39;;;;;;;1.48;1.45;;;;;;;;;;5095708;28;20512;-87
2023/02/13 04:04:08;;;;;;;2.00;1.80;;;;;;;;;;5092452;28;20493;-88
2023/02/13 04:06:38;;;;;;;3.15;2.30;;;;;;;;;;5077734;28;20045;-87
2023/02/13 04:09:06;;;;;;;1.80;1.70;;;;;;;;;;5075658;28;20056;-87
2023/02/13 04:11:35;;;;;;;2.45;2.25;;;;;;;;;;5075543;28;20044;-86
2023/02/13 04:14:06;;;;;;;2.08;1.73;;;;;;;;;;5075305;28;20052;-86
2023/02/13 04:16:35;;;;;;;3.55;3.25;;;;;;;;;;5075406;28;20044;-87
2023/02/13 04:19:02;;;;;;;1.08;1.08;;;;;;;;;;5093942;28;20504;-86
2023/02/13 04:21:32;;;;;;;4.28;3.97;;;;;;;;;;5091201;28;20116;-86
2023/02/13 04:23:58;;;;;;;3.00;2.83;;;;;;;;;;5095460;28;20109;-86
2023/02/13 04:26:28;;;;;;;2.00;1.90;;;;;;;;;;5095092;28;20093;-87
2023/02/13 04:28:55;;;;;;;1.73;1.65;;;;;;;;;;5095632;28;20051;-87
2023/02/13 04:31:21;;;;;;;0.85;0.85;;;;;;;;;;5095612;28;20478;-86
2023/02/13 04:33:48;;;;;;;2.65;2.38;;;;;;;;;;5095051;28;20051;-87
2023/02/13 04:36:14;;;;;;;0.77;0.70;;;;;;;;;;5095356;28;20048;-87
2023/02/13 04:38:41;;;;;;;2.10;1.92;;;;;;;;;;5091613;28;20044;-87
2023/02/13 04:41:07;;;;;;;1.42;1.33;;;;;;;;;;5094863;28;20044;-87
2023/02/13 04:43:36;;;;;;;1.67;1.63;;;;;;;;;;5095125;28;20044;-87
2023/02/13 04:46:03;;;;;;;1.45;1.35;;;;;;;;;;5095123;28;20048;-87
2023/02/13 04:48:29;;;;;;;1.20;1.10;;;;;;;;;;5074699;28;20049;-87
2023/02/13 04:50:56;;;;;;;0.90;0.90;;;;;;;;;;5074369;28;20048;-87
2023/02/13 04:53:22;;;;;;;3.97;2.63;;;;;;;;;;5074041;28;20045;-87
2023/02/13 04:55:49;;;;;;;2.05;1.95;;;;;;;;;;5093807;28;20056;-87
2023/02/13 04:58:15;;;;;;;0.75;0.75;;;;;;;;;;5094957;28;20048;-87
2023/02/13 05:00:43;;;;;;;1.30;1.30;;;;;;;;;;5094693;28;20482;-87
2023/02/13 05:03:11;;;;;;;3.78;3.05;;;;;;;;;;5094833;28;20044;-88
2023/02/13 05:05:37;;;;;;;0.98;0.98;;;;;;;;;;5094815;28;20512;-89
2023/02/13 05:08:04;;;;;;;1.17;1.17;;;;;;;;;;5095030;28;20117;-88
2023/02/13 05:10:31;;;;;;;3.30;3.10;;;;;;;;;;5094749;28;20102;-88
2023/02/13 05:12:58;;;;;;;1.55;1.05;;;;;;;;;;5090905;28;20105;-88
2023/02/13 05:15:24;;;;;;;2.13;2.03;;;;;;;;;;5095021;28;20052;-88
2023/02/13 05:17:52;;;;;;;2.55;2.38;;;;;;;;;;5094716;28;20044;-86
2023/02/13 05:20:19;;;;;;;5.55;2.08;;;;;;;;;;5094825;28;20097;-87
2023/02/13 05:25:30;;;;;;;0.85;0.85;;;;;;;;;;5094344;28;20131;-87
2023/02/13 05:27:56;;;;;;;3.10;2.92;;;;;;;;;;5094654;28;20090;-86
2023/02/13 05:30:22;;;;;;;2.65;2.50;;;;;;;;;;5090116;28;20044;-86
2023/02/13 05:32:49;;;;;;;0.52;0.45;;;;;;;;;;5094316;28;20093;-87
2023/02/13 05:35:17;;;;;;;1.02;1.02;;;;;;;;;;5094263;28;20131;-88
2023/02/13 05:37:44;;;;;;;1.17;1.17;;;;;;;;;;5094851;28;20044;-87
2023/02/13 05:40:12;;;;;;;0.70;0.70;;;;;;;;;;5094445;28;20048;-87
2023/02/13 05:42:39;;;;;;;0.55;0.55;;;;;;;;;;5094557;28;20540;-88
2023/02/13 05:45:06;;;;;;;1.45;1.38;;;;;;;;;;5094413;28;20101;-88
2023/02/13 05:47:32;;;;;;;1.60;1.50;;;;;;;;;;5089080;28;20650;-88
2023/02/13 05:49:59;;;;;;;3.22;1.65;;;;;;;;;;5074126;28;20044;-88
2023/02/13 05:52:27;;;;;;;2.90;2.75;;;;;;;;;;5073724;28;20398;-86
2023/02/13 05:54:53;;;;;;;1.98;1.88;;;;;;;;;;5073652;28;20106;-88
2023/02/13 05:57:20;;;;;;;0.73;0.73;;;;;;;;;;5074105;28;20086;-87
2023/02/13 05:59:46;;;;;;;0.95;0.95;;;;;;;;;;5074022;28;20044;-86
2023/02/13 06:02:13;;;;;;;1.85;1.65;;;;;;;;;;5071347;28;20044;-86
2023/02/13 06:04:40;;;;;;;1.15;1.13;;;;;;;;;;5075616;28;20056;-86
2023/02/13 06:07:06;;;;;;;2.97;2.78;;;;;;;;;;5072903;28;20527;-86
2023/02/13 06:09:34;;;;;;;1.88;1.77;;;;;;;;;;5089696;28;20047;-86
2023/02/13 06:12:01;;;;;;;1.55;1.20;;;;;;;;;;5086562;28;20112;-87
2023/02/13 06:14:27;;;;;;;2.85;2.75;;;;;;;;;;5093119;28;20105;-86
2023/02/13 06:16:54;;;;;;;1.30;1.20;;;;;;;;;;5092840;28;20052;-86
2023/02/13 06:19:20;;;;;;;2.00;1.88;;;;;;;;;;5091131;28;20056;-88
2023/02/13 06:21:47;;;;;;;3.42;3.13;;;;;;;;;;5090567;28;20044;-86
2023/02/13 06:24:13;;;;;;;2.40;2.28;;;;;;;;;;5091302;28;20044;-86
2023/02/13 06:26:41;;;;;;;1.25;1.15;;;;;;;;;;5092605;28;20044;-86
2023/02/13 06:29:08;;;;;;;1.30;1.25;;;;;;;;;;5099006;28;20044;-87
2023/02/13 06:31:34;;;;;;;1.83;1.73;;;;;;;;;;5100119;28;20062;-87
2023/02/13 06:34:01;;;;;;;2.03;1.92;;;;;;;;;;5092991;28;20043;-86
2023/02/13 06:36:28;;;;;;;1.92;1.65;;;;;;;;;;5090009;28;20101;-88
2023/02/13 06:38:54;;;;;;;2.53;2.42;;;;;;;;;;5091032;28;20105;-85
2023/02/13 06:41:21;;;;;;;5.03;1.45;;;;;;;;;;5092037;28;20056;-85
2023/02/13 06:43:49;;;;;;;0.80;0.80;;;;;;;;;;5086251;28;20109;-86
2023/02/13 06:46:15;;;;;;;3.85;3.65;;;;;;;;;;5084668;28;20041;-85
2023/02/13 06:48:42;;;;;;;4.18;3.50;;;;;;;;;;5080260;28;20117;-85
2023/02/13 06:51:08;;;;;;;2.05;1.95;;;;;;;;;;5093149;28;20048;-85
2023/02/13 06:53:35;;;;;;;1.20;1.17;;;;;;;;;;5092688;28;20485;-85
2023/02/13 06:56:03;;;;;;;1.27;1.23;;;;;;;;;;5092199;28;20060;-86
2023/02/13 06:58:30;;;;;;;2.75;2.65;;;;;;;;;;5092775;28;20047;-86
2023/02/13 07:00:58;;;;;;;1.85;1.75;;;;;;;;;;5092678;28;20052;-86
2023/02/13 07:03:24;;;;;;;1.73;1.58;;;;;;;;;;5093022;28;20086;-85
2023/02/13 07:05:51;;;;;;;3.13;2.92;;;;;;;;;;5092703;28;20075;-85
2023/02/13 07:08:18;;;;;;;0.93;0.90;;;;;;;;;;5092890;28;20127;-86
2023/02/13 07:10:44;;;;;;;4.93;4.55;;;;;;;;;;5092135;28;20044;-88
2023/02/13 07:13:11;;;;;;;1.60;1.33;;;;;;;;;;5092090;28;20546;-88
2023/02/13 07:15:37;;;;;;;2.17;2.08;;;;;;;;;;5096390;28;20052;-88
2023/02/13 07:18:06;;;;;;;2.47;2.28;;;;;;;;;;5096116;28;20048;-88
2023/02/13 07:20:32;;;;;;;2.63;2.42;;;;;;;;;;5076087;28;20483;-88
2023/02/13 07:22:59;;;;;;;2.47;2.35;;;;;;;;;;5075898;28;20051;-89
2023/02/13 07:25:26;;;;;;;3.35;2.88;;;;;;;;;;5095509;28;20101;-88
2023/02/13 07:27:52;;;;;;;2.58;2.45;;;;;;;;;;5095968;28;20052;-88
2023/02/13 07:30:19;;;;;;;1.63;1.55;;;;;;;;;;5095545;28;20493;-87
2023/02/13 07:32:45;;;;;;;3.75;3.45;;;;;;;;;;5095277;28;20059;-87
2023/02/13 07:35:13;;;;;;;0.82;0.82;;;;;;;;;;5096015;28;20044;-88
2023/02/13 07:37:40;;;;;;;5.55;5.13;;;;;;;;;;5095495;28;20500;-87
2023/02/13 07:40:07;;;;;;;10.23;5.10;;;;;;;;;;5095028;28;20105;-88
2023/02/13 07:42:34;;;;;;;3.78;3.58;;;;;;;;;;5095178;28;20052;-87
2023/02/13 07:45:04;;;;;;;6.18;5.63;;;;;;;;;;5095330;28;20126;-85
2023/02/13 07:47:30;;;;;;;5.50;4.97;;;;;;;;;;5094694;28;20059;-86
2023/02/13 07:49:57;;;;;;;4.30;4.00;;;;;;;;;;5094882;28;20044;-85
2023/02/13 07:52:25;;;;;;;6.45;4.43;;;;;;;;;;5094779;28;20047;-85
2023/02/13 07:54:51;;;;;;;8.77;7.70;;;;;;;;;;5092845;28;20047;-86
2023/02/13 07:57:18;;;;;;;3.97;3.67;;;;;;;;;;5094371;28;20517;-85
2023/02/13 07:59:45;;;;;;;3.92;3.33;;;;;;;;;;5094516;28;20595;-86
2023/02/13 08:02:12;;;;;;;4.75;4.47;;;;;;;;;;5094775;28;20056;-85
2023/02/13 08:04:39;;;;;;;3.65;3.45;;;;;;;;;;5094898;28;20461;-85
2023/02/13 08:07:06;;;;;;;8.35;4.32;;;;;;;;;;5094736;28;20452;-85
2023/02/13 08:12:18;;;;;;;6.38;5.50;;;;;;;;;;5094418;28;20193;-85
2023/02/13 08:14:44;;;;;;;2.78;2.38;;;;;;;;;;5094021;28;20066;-85
2023/02/13 08:17:11;;;;;;;2.90;2.70;;;;;;;;;;5094489;28;20101;-85
2023/02/13 08:19:37;;;;;;;5.47;4.00;;;;;;;;;;5094103;28;20048;-85
2023/02/13 08:22:04;;;;;;;5.00;3.35;;;;;;;;;;5094377;28;20055;-86
2023/02/13 08:24:30;;;;;;;5.85;5.35;;;;;;;;;;5094015;28;20101;-85
2023/02/13 08:26:58;;;;;;;7.00;4.43;;;;;;;;;;5092199;28;20850;-85
2023/02/13 08:29:25;;;;;;;2.80;2.70;;;;;;;;;;5094805;28;20040;-85
2023/02/13 08:31:51;;;;;;;4.43;3.97;;;;;;;;;;5094994;28;20051;-87
2023/02/13 08:34:18;;;;;;;4.82;4.38;;;;;;;;;;5095004;28;20048;-88
2023/02/13 08:36:44;;;;;;;2.47;2.35;;;;;;;;;;5093768;28;20048;-89
2023/02/13 08:39:11;;;;;;;8.00;7.30;;;;;;;;;;5094777;28;20052;-86
2023/02/13 08:41:38;;;;;;;5.43;3.17;;;;;;;;;;5094901;28;20052;-86
2023/02/13 08:44:06;;;;;;;5.90;4.13;;;;;;;;;;5095002;28;20049;-84
2023/02/13 08:46:32;;;;;;;4.45;4.18;;;;;;;;;;5094460;28;20097;-85
2023/02/13 08:48:59;;;;;;;3.92;3.65;;;;;;;;;;5094324;28;20040;-88
2023/02/13 08:51:25;;;;;;;2.70;2.60;;;;;;;;;;5094290;28;20048;-86
2023/02/13 08:53:52;;;;;;;5.53;3.33;;;;;;;;;;5094562;28;20043;-86
2023/02/13 08:56:18;;;;;;;9.90;4.63;;;;;;;;;;5094350;28;20055;-87
2023/02/13 08:58:48;;;;;;;5.80;4.18;;;;;;;;;;5094403;28;20097;-86
2023/02/13 09:01:16;;;;;;;6.60;4.30;;;;;;;;;;5094522;28;20052;-85
2023/02/13 09:03:42;;;;;;;8.98;5.57;;;;;;;;;;5094512;28;20097;-86
2023/02/13 09:06:09;;;;;;;4.70;4.30;;;;;;;;;;5094189;28;20090;-85
2023/02/13 09:08:35;;;;;;;3.70;3.50;;;;;;;;;;5093109;28;20055;-85
2023/02/13 09:11:04;;;;;;;11.15;3.92;;;;;;;;;;5090268;28;20048;-85
2023/02/13 09:13:32;;;;;;;7.20;3.85;;;;;;;;;;5093375;28;20501;-86
2023/02/13 09:15:59;;;;;;;5.72;5.32;;;;;;;;;;5093409;28;20083;-86
2023/02/13 09:18:27;;;;;;;5.90;5.05;;;;;;;;;;5089198;28;20116;-86
2023/02/13 09:20:58;;;;;;;4.88;4.43;;;;;;;;;;5093780;28;20059;-85
2023/02/13 09:23:24;;;;;;;5.38;4.97;;;;;;;;;;5094372;28;20051;-87
2023/02/13 09:25:51;;;;;;;5.93;5.43;;;;;;;;;;5093634;28;20052;-87
2023/02/13 09:28:17;;;;;;;3.78;3.47;;;;;;;;;;5094262;28;20439;-85
2023/02/13 09:30:44;;;;;;;7.57;4.53;;;;;;;;;;5092245;28;20105;-87
2023/02/13 09:33:11;;;;;;;8.77;4.93;;;;;;;;;;5091412;28;20112;-87
2023/02/13 09:35:41;;;;;;;3.83;2.88;;;;;;;;;;5092545;28;20048;-87
2023/02/13 09:38:07;;;;;;;3.70;3.35;;;;;;;;;;5093172;28;20044;-86
2023/02/13 09:40:36;;;;;;;4.28;4.00;;;;;;;;;;5093158;28;20401;-87
2023/02/13 09:43:06;;;;;;;5.75;5.22;;;;;;;;;;5094777;28;20063;-88
2023/02/13 09:45:33;;;;;;;4.72;4.30;;;;;;;;;;5094211;28;20116;-87
2023/02/13 09:48:00;;;;;;;7.50;5.88;;;;;;;;;;5094346;28;20055;-87
2023/02/13 09:50:29;;;;;;;8.73;7.40;;;;;;;;;;5092956;28;20048;-87
2023/02/13 09:52:58;;;;;;;9.50;5.93;;;;;;;;;;5092622;28;20052;-87
2023/02/13 09:55:29;;;;;;;5.88;3.80;;;;;;;;;;5093100;28;20051;-87
2023/02/13 09:57:58;;;;;;;10.02;6.15;;;;;;;;;;5090912;28;20039;-86
2023/02/13 10:00:29;;;;;;;3.60;2.88;;;;;;;;;;5094403;28;20101;-86
2023/02/13 10:03:06;;;;;;;5.10;4.60;;;;;;;;;;5100828;28;20075;-86
2023/02/13 10:05:33;;;;;;;;;;;;;;;;;;5102581;28;20050;-88
2023/02/13 10:08:03;;;;;;;13.50;5.28;;;;;;;;;;5102382;28;19981;-85
2023/02/13 10:10:34;;;;;;;6.32;5.70;;;;;;;;;;5101509;28;20044;-85
2023/02/13 10:13:15;;;;;;;3.63;3.33;;;;;;;;;;5096904;28;20467;-86
2023/02/13 10:15:46;;;;;;;4.85;4.38;;;;;;;;;;5091255;28;20048;-86
2023/02/13 10:18:12;;;;;;;;;;;;;;;;;;5093325;28;20044;-86
2023/02/13 10:20:41;;;;;;;4.57;4.18;;;;;;;;;;5093379;28;19923;-86
2023/02/13 10:23:17;;;;;;;5.55;4.88;;;;;;;;;;5093258;28;20062;-86
2023/02/13 10:25:45;;;;;;;4.72;4.45;;;;;;;;;;5093215;28;20093;-86
2023/02/13 10:28:14;;;;;;;12.02;5.25;;;;;;;;;;5093466;28;20056;-86
2023/02/13 10:30:45;;;;;;;4.72;4.35;;;;;;;;;;5092948;28;20613;-86
2023/02/13 10:33:20;;;;;;;4.20;2.55;;;;;;;;;;5093146;28;20055;-86
2023/02/13 10:35:49;;;;;;;6.15;4.93;;;;;;;;;;5092295;28;20477;-86
2023/02/13 10:38:19;;;;;;;7.78;6.07;;;;;;;;;;5092503;28;20086;-87
2023/02/13 10:40:49;;;;;;;7.68;5.28;;;;;;;;;;5092610;28;20482;-87
2023/02/13 10:43:17;;;;;;;4.47;4.05;;;;;;;;;;5092490;28;20055;-87
2023/02/13 10:45:49;;;;;;;9.80;4.90;;;;;;;;;;5092851;28;20063;-87
2023/02/13 10:48:25;;;;;;;5.85;5.38;;;;;;;;;;5092428;28;20105;-87
2023/02/13 10:50:56;;;;;;;7.45;6.75;;;;;;;;;;5096779;28;20052;-87
2023/02/13 10:53:28;;;;;;;6.75;4.43;;;;;;;;;;5096399;28;20070;-87
2023/02/13 10:56:04;;;;;;;8.15;7.47;;;;;;;;;;5105689;28;20077;-88
2023/02/13 10:58:34;;;;;;;10.05;6.03;;;;;;;;;;5104997;28;20139;-89
2023/02/13 11:01:03;;;;;;;7.50;5.80;;;;;;;;;;5110511;28;20052;-86
2023/02/13 11:03:30;;;;;;;6.18;5.47;;;;;;;;;;5112335;28;20489;-86
2023/02/13 11:05:57;;;;;;;4.57;4.22;;;;;;;;;;5102554;28;20060;-87
2023/02/13 11:08:33;;;;;;;8.73;5.28;;;;;;;;;;5102551;28;20121;-87
2023/02/13 11:10:59;;;;;;;6.72;6.10;;;;;;;;;;5100889;28;20067;-86
2023/02/13 11:13:30;;;;;;;6.82;3.83;;;;;;;;;;5102923;28;20052;-85
2023/02/13 11:16:00;;;;;;;6.65;4.30;;;;;;;;;;5100518;28;20045;-88
2023/02/13 11:18:27;;;;;;;;;;;;;;;;;;5102961;28;20051;-86
2023/02/13 11:20:58;;;;;;;8.82;5.55;;;;;;;;;;5102731;28;19924;-88
2023/02/13 11:23:35;;;;;;;7.05;6.53;;;;;;;;;;5102150;28;20051;-88
2023/02/13 11:26:03;;;;;;;9.25;6.13;;;;;;;;;;5097125;28;20044;-87
2023/02/13 11:28:31;;;;;;;5.50;4.95;;;;;;;;;;5104112;28;20055;-87
2023/02/13 11:31:11;;;;;;;6.93;5.35;;;;;;;;;;5105820;28;20779;-88
2023/02/13 11:33:39;;;;;;;6.03;5.45;;;;;;;;;;5103330;28;20136;-87
2023/02/13 11:36:06;;;;;;;8.18;7.13;;;;;;;;;;5101964;28;20039;-86
2023/02/13 11:38:36;;;;;;;2.58;2.47;;;;;;;;;;5102093;28;20109;-87
2023/02/13 11:41:09;;;;;;;7.45;6.75;;;;;;;;;;5101680;28;20048;-88
2023/02/13 11:43:43;;;;;;;8.70;6.72;;;;;;;;;;5102279;28;20056;-86
2023/02/13 11:46:19;;;;;;;6.03;4.82;;;;;;;;;;5101725;28;20044;-88
2023/02/13 11:48:56;;;;;;;6.05;5.53;;;;;;;;;;5102116;28;20706;-87
2023/02/13 11:51:34;;;;;;;7.78;6.50;;;;;;;;;;5100449;28;20085;-86
2023/02/13 11:54:03;;;;;;;6.13;5.53;;;;;;;;;;5098422;28;20048;-89
2023/02/13 11:56:46;;;;;;;6.85;5.88;;;;;;;;;;5100737;28;20064;-87
2023/02/13 11:59:13;;;;;;;6.78;6.32;;;;;;;;;;5096882;28;20485;-86
2023/02/13 12:02:01;;;;;;;4.25;3.88;;;;;;;;;;5095592;28;20044;-88
2023/02/13 12:04:27;;;;;;;7.30;6.15;;;;;;;;;;5101275;28;20056;-86
2023/02/13 12:06:58;;;;;;;5.43;5.07;;;;;;;;;;5099590;28;20101;-87
2023/02/13 12:09:27;;;;;;;4.13;3.75;;;;;;;;;;5103569;28;20040;-87
2023/02/13 12:11:57;;;;;;;6.38;5.68;;;;;;;;;;5101526;28;20055;-86
2023/02/13 12:14:25;;;;;;;8.18;7.20;;;;;;;;;;5082263;28;20049;-86
2023/02/13 12:16:54;;;;;;;6.72;4.35;;;;;;;;;;5101562;28;20489;-88
2023/02/13 12:19:25;;;;;;;8.15;5.38;;;;;;;;;;5100489;28;20055;-87
2023/02/13 12:22:13;;;;;;;5.63;3.75;;;;;;;;;;5100578;28;20048;-87
2023/02/13 12:24:55;;;;;;;7.10;6.00;;;;;;;;;;5091466;28;20094;-87
2023/02/13 12:27:26;;;;;;;4.72;4.00;;;;;;;;;;5098705;28;20055;-87
2023/02/13 12:30:05;;;;;;;3.50;3.22;;;;;;;;;;5102397;28;20052;-86
2023/02/13 12:32:45;;;;;;;5.82;5.07;;;;;;;;;;5090369;28;20054;-87
2023/02/13 12:35:19;;;;;;;9.95;5.88;;;;;;;;;;5098869;28;20048;-86
2023/02/13 12:37:54;;;;;;;5.47;4.93;;;;;;;;;;5095089;28;20051;-87
2023/02/13 12:40:32;;;;;;;6.50;5.97;;;;;;;;;;5107779;28;20051;-87
2023/02/13 12:43:09;;;;;;;6.57;6.03;;;;;;;;;;5093057;28;20497;-88
2023/02/13 12:45:38;;;;;;;4.47;4.07;;;;;;;;;;5094286;28;20044;-84
2023/02/13 12:48:15;;;;;;;6.75;4.20;;;;;;;;;;5094383;28;20113;-87
2023/02/13 12:50:46;;;;;;;6.13;5.57;;;;;;;;;;5094391;28;20113;-87
2023/02/13 12:53:19;;;;;;;6.88;6.35;;;;;;;;;;5094670;28;20044;-87
2023/02/13 12:55:56;;;;;;;6.75;5.53;;;;;;;;;;5094063;28;20044;-87
2023/02/13 12:58:34;;;;;;;5.50;4.97;;;;;;;;;;5094315;28;20933;-87
2023/02/13 13:01:04;;;;;;;5.88;5.25;;;;;;;;;;5086569;28;20451;-86
2023/02/13 13:03:35;;;;;;;6.03;5.15;;;;;;;;;;5093794;28;20074;-87
2023/02/13 13:06:07;;;;;;;6.93;6.10;;;;;;;;;;5092871;28;20109;-88
2023/02/13 13:08:43;;;;;;;6.50;4.32;;;;;;;;;;5093770;28;20462;-87
2023/02/13 13:11:21;;;;;;;5.72;4.30;;;;;;;;;;5093619;28;20094;-88
2023/02/13 13:13:53;;;;;;;6.45;5.95;;;;;;;;;;5094022;28;20463;-87
2023/02/13 13:16:26;;;;;;;7.85;5.95;;;;;;;;;;5092619;28;20508;-87
2023/02/13 13:18:57;;;;;;;7.50;4.18;;;;;;;;;;5093325;28;20055;-87
2023/02/13 13:21:32;;;;;;;5.90;5.50;;;;;;;;;;5093613;28;20044;-87
2023/02/13 13:24:01;;;;;;;8.95;5.15;;;;;;;;;;5094021;28;20060;-87
2023/02/13 13:26:33;;;;;;;5.15;3.55;;;;;;;;;;5082134;28;20040;-88
2023/02/13 13:29:01;;;;;;;6.68;5.07;;;;;;;;;;5094285;28;20048;-88
2023/02/13 13:31:28;;;;;;;4.13;3.75;;;;;;;;;;5094137;28;20048;-88
2023/02/13 13:33:56;;;;;;;5.65;5.15;;;;;;;;;;5094151;28;20093;-87
2023/02/13 13:36:30;;;;;;;3.35;3.05;;;;;;;;;;5093506;28;20426;-88
2023/02/13 13:39:01;;;;;;;7.32;4.47;;;;;;;;;;5093845;28;20105;-87
2023/02/13 13:41:35;;;;;;;5.82;4.93;;;;;;;;;;5096322;28;20097;-87
2023/02/13 13:44:19;;;;;;;5.80;5.25;;;;;;;;;;5096561;28;20051;-87
2023/02/13 13:46:52;;;;;;;6.22;5.18;;;;;;;;;;5094643;28;20044;-88
2023/02/13 13:49:27;;;;;;;4.57;4.18;;;;;;;;;;5089600;28;20052;-88
2023/02/13 13:51:53;;;;;;;7.60;5.55;;;;;;;;;;5093413;28;20047;-88
2023/02/13 13:54:24;;;;;;;4.03;3.40;;;;;;;;;;5093583;28;20052;-87
2023/02/13 13:57:09;;;;;;;6.03;4.38;;;;;;;;;;5092902;28;20491;-87
2023/02/13 13:59:54;;;;;;;3.40;3.10;;;;;;;;;;5093880;28;20054;-86
2023/02/13 14:02:27;;;;;;;6.10;5.60;;;;;;;;;;5090658;28;20051;-85
2023/02/13 14:05:02;;;;;;;5.57;5.07;;;;;;;;;;5093425;28;20048;-86
2023/02/13 14:07:34;;;;;;;4.60;4.15;;;;;;;;;;5093736;28;20101;-87
2023/02/13 14:10:00;;;;;;;7.50;5.68;;;;;;;;;;5092741;28;20044;-86
2023/02/13 14:12:45;;;;;;;4.53;4.22;;;;;;;;;;5092739;28;20052;-87
2023/02/13 14:15:26;;;;;;;8.15;4.45;;;;;;;;;;5093863;28;20048;-86
2023/02/13 14:17:54;;;;;;;3.95;3.60;;;;;;;;;;5093217;28;20098;-86
2023/02/13 14:20:22;;;;;;;7.10;6.07;;;;;;;;;;5094142;28;20052;-86
2023/02/13 14:22:48;;;;;;;4.78;4.53;;;;;;;;;;5093500;28;20048;-86
2023/02/13 14:25:22;;;;;;;5.70;5.20;;;;;;;;;;5093373;28;20040;-86
2023/02/13 14:27:56;;;;;;;6.60;5.47;;;;;;;;;;5093236;28;20048;-86
2023/02/13 14:30:26;;;;;;;5.20;4.72;;;;;;;;;;5072434;28;20063;-85
2023/02/13 14:32:53;;;;;;;5.72;5.13;;;;;;;;;;5089278;28;20052;-86
2023/02/13 14:35:23;;;;;;;4.30;4.07;;;;;;;;;;5092983;28;20070;-86
2023/02/13 14:37:50;;;;;;;4.85;4.38;;;;;;;;;;5092574;28;20040;-86
2023/02/13 14:40:32;;;;;;;4.50;3.80;;;;;;;;;;5093400;28;20044;-86
2023/02/13 14:43:01;;;;;;;7.95;4.13;;;;;;;;;;5092751;28;20098;-86
2023/02/13 14:45:31;;;;;;;3.90;3.70;;;;;;;;;;5093411;28;20047;-86
2023/02/13 14:47:58;;;;;;;6.10;4.07;;;;;;;;;;5093044;28;20489;-86
2023/02/13 14:50:26;;;;;;;3.28;2.97;;;;;;;;;;5092663;28;20044;-86
2023/02/13 14:52:54;;;;;;;4.90;4.45;;;;;;;;;;5092717;28;20060;-86
2023/02/13 14:55:27;;;;;;;5.75;4.38;;;;;;;;;;5092201;28;20044;-86
2023/02/13 14:57:57;;;;;;;6.30;5.75;;;;;;;;;;5092799;28;20113;-86
2023/02/13 15:00:27;;;;;;;6.20;5.70;;;;;;;;;;5092630;28;20545;-86
2023/02/13 15:02:55;;;;;;;5.57;4.95;;;;;;;;;;5092390;28;20052;-86
2023/02/13 15:05:22;;;;;;;8.00;4.40;;;;;;;;;;5092558;28;20044;-86
2023/02/13 15:07:50;;;;;;;3.35;3.05;;;;;;;;;;5091888;28;20048;-86
2023/02/13 15:10:27;;;;;;;4.97;4.25;;;;;;;;;;5092627;28;20505;-86
2023/02/13 15:12:56;;;;;;;3.83;3.50;;;;;;;;;;5092592;28;20052;-86
2023/02/13 15:15:24;;;;;;;3.83;3.53;;;;;;;;;;5093212;28;20048;-86
2023/02/13 15:17:53;;;;;;;6.38;5.03;;;;;;;;;;5092478;28;20147;-85
2023/02/13 15:20:23;;;;;;;5.90;3.17;;;;;;;;;;5092483;28;20044;-86
2023/02/13 15:22:49;;;;;;;4.97;3.67;;;;;;;;;;5092357;28;20131;-86
2023/02/13 15:25:23;;;;;;;6.50;5.93;;;;;;;;;;5092495;28;20569;-85
2023/02/13 15:27:52;;;;;;;11.38;4.10;;;;;;;;;;5093173;28;20098;-86
2023/02/13 15:30:20;;;;;;;7.38;3.97;;;;;;;;;;5093274;28;20052;-86
2023/02/13 15:32:53;;;;;;;4.93;4.53;;;;;;;;;;5093812;28;20083;-86
2023/02/13 15:35:25;;;;;;;2.75;2.55;;;;;;;;;;5094361;28;20079;-86
2023/02/13 15:37:53;;;;;;;3.70;3.38;;;;;;;;;;5102467;28;20055;-86
2023/02/13 15:40:25;;;;;;;4.18;2.60;;;;;;;;;;5108481;28;20048;-87
2023/02/13 15:42:53;;;;;;;3.58;3.28;;;;;;;;;;5101599;28;20052;-88
2023/02/13 15:45:24;;;;;;;3.97;3.47;;;;;;;;;;5106271;28;20048;-88